createdAt,value
2022-11-16T00:01:37.534Z,12.00
2022-11-16T00:04:07.110Z,12.00
2022-11-16T00:06:36.528Z,12.10
2022-11-16T00:09:27.226Z,12.10
2022-11-16T00:11:58.833Z,12.10
2022-11-16T00:14:31.216Z,12.00
2022-11-16T00:17:01.538Z,12.10
2022-11-16T00:19:31.284Z,12.00
2022-11-16T00:22:00.717Z,12.10
2022-11-16T00:24:30.337Z,11.90
2022-11-16T00:26:59.647Z,12.00
2022-11-16T00:29:30.567Z,11.90
2022-11-16T00:32:01.438Z,12.10
2022-11-16T00:34:30.880Z,12.00
2022-11-16T00:37:00.311Z,12.10
2022-11-16T00:39:29.698Z,12.00
2022-11-16T00:41:59.301Z,12.10
2022-11-16T00:44:30.147Z,12.00
2022-11-16T00:46:59.534Z,12.00
2022-11-16T00:49:28.899Z,12.00
2022-11-16T00:51:58.499Z,12.00
2022-11-16T00:54:29.461Z,12.00
2022-11-16T00:56:58.359Z,12.00
2022-11-16T00:59:29.232Z,12.10
2022-11-16T01:01:59.861Z,12.00
2022-11-16T01:04:28.702Z,12.00
2022-11-16T01:06:57.296Z,11.90
2022-11-16T01:09:26.295Z,11.90
2022-11-16T01:12:13.022Z,11.90
2022-11-16T01:14:45.522Z,11.90
2022-11-16T01:17:14.906Z,12.00
2022-11-16T01:19:43.506Z,12.00
2022-11-16T01:22:12.212Z,12.00
2022-11-16T01:24:41.016Z,12.20
2022-11-16T01:27:09.672Z,12.10
2022-11-16T01:29:42.774Z,12.20
2022-11-16T01:32:11.396Z,12.20
2022-11-16T01:34:40.132Z,12.10
2022-11-16T01:37:25.971Z,12.20
2022-11-16T01:39:54.911Z,12.10
2022-11-16T01:42:26.421Z,12.10
2022-11-16T01:45:08.065Z,12.10
2022-11-16T01:47:36.793Z,12.10
2022-11-16T01:50:12.460Z,12.10
2022-11-16T01:52:48.960Z,12.10
2022-11-16T01:55:19.132Z,12.10
2022-11-16T01:58:03.605Z,12.00
2022-11-16T02:00:35.899Z,12.00
2022-11-16T02:03:24.152Z,11.90
2022-11-16T02:06:09.283Z,11.90
2022-11-16T02:09:09.321Z,12.00
2022-11-16T02:12:02.501Z,11.90
2022-11-16T02:14:44.741Z,11.80
2022-11-16T02:17:30.262Z,11.90
2022-11-16T02:20:27.233Z,11.80
2022-11-16T02:23:15.891Z,11.80
2022-11-16T02:25:57.797Z,11.90
2022-11-16T02:28:38.199Z,11.70
2022-11-16T02:31:11.269Z,11.80
2022-11-16T02:33:43.292Z,11.80
2022-11-16T02:36:17.540Z,11.90
2022-11-16T02:38:52.803Z,11.80
2022-11-16T02:41:25.382Z,11.90
2022-11-16T02:44:01.056Z,11.90
2022-11-16T02:46:35.936Z,11.80
2022-11-16T02:49:11.713Z,11.90
2022-11-16T02:51:43.019Z,11.90
2022-11-16T02:54:16.164Z,11.90
2022-11-16T02:56:56.848Z,12.00
2022-11-16T02:59:32.814Z,11.90
2022-11-16T03:02:12.694Z,12.00
2022-11-16T03:04:45.143Z,11.90
2022-11-16T03:07:17.930Z,11.80
2022-11-16T03:09:51.841Z,11.90
2022-11-16T03:12:25.602Z,11.80
2022-11-16T03:14:58.709Z,11.80
2022-11-16T03:17:31.547Z,12.00
2022-11-16T03:20:05.906Z,12.00
2022-11-16T03:22:41.291Z,12.00
2022-11-16T03:25:12.990Z,11.70
2022-11-16T03:27:49.946Z,11.80
2022-11-16T03:30:23.816Z,11.80
2022-11-16T03:33:03.529Z,11.90
2022-11-16T03:35:38.712Z,11.90
2022-11-16T03:38:09.255Z,11.90
2022-11-16T03:40:42.305Z,12.00
2022-11-16T03:43:12.464Z,11.90
2022-11-16T03:45:43.192Z,11.90
2022-11-16T03:48:14.676Z,12.00
2022-11-16T03:50:45.310Z,11.80
2022-11-16T03:53:15.685Z,11.80
2022-11-16T03:55:49.586Z,11.90
2022-11-16T03:58:19.528Z,11.90
2022-11-16T04:00:49.385Z,11.90
2022-11-16T04:03:19.995Z,11.80
2022-11-16T04:06:07.792Z,11.90
2022-11-16T04:08:55.562Z,11.80
2022-11-16T04:11:42.703Z,11.80
2022-11-16T04:14:32.559Z,11.80
2022-11-16T04:17:18.910Z,11.70
2022-11-16T04:20:06.690Z,11.80
2022-11-16T04:23:08.713Z,11.80
2022-11-16T04:25:41.669Z,11.80
2022-11-16T04:28:19.340Z,11.70
2022-11-16T04:31:13.118Z,11.70
2022-11-16T04:34:04.333Z,11.70
2022-11-16T04:36:52.613Z,11.70
2022-11-16T04:39:21.800Z,11.60
2022-11-16T04:42:08.304Z,11.80
2022-11-16T04:44:55.080Z,11.70
2022-11-16T04:47:27.310Z,11.80
2022-11-16T04:49:56.455Z,11.60
2022-11-16T04:52:27.974Z,11.70
2022-11-16T04:54:58.170Z,11.90
2022-11-16T04:57:27.911Z,11.80
2022-11-16T04:59:57.732Z,11.80
2022-11-16T05:02:27.238Z,11.90
2022-11-16T05:04:59.841Z,11.90
2022-11-16T05:07:32.498Z,11.80
2022-11-16T05:10:12.054Z,11.80
2022-11-16T05:12:42.135Z,11.80
2022-11-16T05:15:12.711Z,11.80
2022-11-16T05:17:41.905Z,11.70
2022-11-16T05:20:34.432Z,11.70
2022-11-16T05:23:27.667Z,11.70
2022-11-16T05:25:58.321Z,11.70
2022-11-16T05:28:27.409Z,11.70
2022-11-16T05:30:56.426Z,11.80
2022-11-16T05:33:28.032Z,11.70
2022-11-16T05:35:57.213Z,11.80
2022-11-16T05:38:27.703Z,11.80
2022-11-16T05:41:00.336Z,11.90
2022-11-16T05:43:31.187Z,11.90
2022-11-16T05:46:22.202Z,11.80
2022-11-16T05:48:51.391Z,11.80
2022-11-16T05:51:20.549Z,11.90
2022-11-16T05:53:51.314Z,11.90
2022-11-16T05:56:23.945Z,11.90
2022-11-16T05:58:55.415Z,11.90
2022-11-16T06:01:24.818Z,11.90
2022-11-16T06:03:54.505Z,11.90
2022-11-16T06:06:23.732Z,11.80
2022-11-16T06:08:55.741Z,11.90
2022-11-16T06:11:32.704Z,11.80
2022-11-16T06:14:05.253Z,11.90
2022-11-16T06:16:35.835Z,11.90
2022-11-16T06:19:08.891Z,12.00
2022-11-16T06:21:38.664Z,11.90
2022-11-16T06:24:15.728Z,11.90
2022-11-16T06:26:46.254Z,11.90
2022-11-16T06:29:15.894Z,12.00
2022-11-16T06:31:45.783Z,12.00
2022-11-16T06:34:15.676Z,12.00
2022-11-16T06:36:45.631Z,12.00
2022-11-16T06:39:17.293Z,12.10
2022-11-16T06:41:47.620Z,12.00
2022-11-16T06:44:16.724Z,12.00
2022-11-16T06:46:55.718Z,12.00
2022-11-16T06:49:29.585Z,12.10
2022-11-16T06:52:03.221Z,12.10
2022-11-16T06:54:34.564Z,12.10
2022-11-16T06:57:03.766Z,12.00
2022-11-16T06:59:33.322Z,11.90
2022-11-16T07:02:03.351Z,12.00
2022-11-16T07:04:34.915Z,12.00
2022-11-16T07:07:04.750Z,11.90
2022-11-16T07:09:37.740Z,12.00
2022-11-16T07:12:10.802Z,12.00
2022-11-16T07:14:43.125Z,11.80
2022-11-16T07:17:13.506Z,11.80
2022-11-16T07:19:42.618Z,11.70
2022-11-16T07:22:12.819Z,11.70
2022-11-16T07:24:43.755Z,11.80
2022-11-16T07:27:13.237Z,11.70
2022-11-16T07:29:46.455Z,11.70
2022-11-16T07:32:40.082Z,11.50
2022-11-16T07:35:21.717Z,11.60
2022-11-16T07:37:50.858Z,12.00
2022-11-16T07:40:22.444Z,11.60
2022-11-16T07:42:52.019Z,11.60
2022-11-16T07:45:33.465Z,11.60
2022-11-16T07:48:08.409Z,11.60
2022-11-16T07:51:03.567Z,11.70
2022-11-16T07:53:35.262Z,11.70
2022-11-16T07:56:07.054Z,11.80
2022-11-16T07:58:37.041Z,11.80
2022-11-16T08:01:07.880Z,11.90
2022-11-16T08:03:38.192Z,11.90
2022-11-16T08:06:09.892Z,11.90
2022-11-16T08:08:39.042Z,11.90
2022-11-16T08:11:12.132Z,11.90
2022-11-16T08:13:42.870Z,12.00
2022-11-16T08:16:14.847Z,12.10
2022-11-16T08:18:47.137Z,12.00
2022-11-16T08:21:19.773Z,12.00
2022-11-16T08:23:51.546Z,12.10
2022-11-16T08:26:26.511Z,12.20
2022-11-16T08:29:01.448Z,12.20
2022-11-16T08:31:35.609Z,12.30
2022-11-16T08:34:14.860Z,12.20
2022-11-16T08:36:47.618Z,12.30
2022-11-16T08:39:16.925Z,12.40
2022-11-16T08:41:47.376Z,12.40
2022-11-16T08:44:18.252Z,12.60
2022-11-16T08:46:51.875Z,12.80
2022-11-16T08:49:30.311Z,13.00
2022-11-16T08:52:00.308Z,13.00
2022-11-16T08:54:30.494Z,13.30
2022-11-16T08:57:01.473Z,13.30
2022-11-16T08:59:33.697Z,13.30
2022-11-16T09:02:09.353Z,13.20
2022-11-16T09:04:38.506Z,13.40
2022-11-16T09:07:07.637Z,13.40
2022-11-16T09:09:37.863Z,13.10
2022-11-16T09:12:08.816Z,13.00
2022-11-16T09:14:37.956Z,13.20
2022-11-16T09:17:07.117Z,13.00
2022-11-16T09:19:36.113Z,13.10
2022-11-16T09:22:05.705Z,13.10
2022-11-16T09:24:34.817Z,13.10
2022-11-16T09:27:04.026Z,13.20
2022-11-16T09:29:35.714Z,13.10
2022-11-16T09:32:06.503Z,13.10
2022-11-16T09:34:36.402Z,13.10
2022-11-16T09:37:05.707Z,13.10
2022-11-16T09:39:35.161Z,12.90
2022-11-16T09:42:18.061Z,12.80
2022-11-16T09:45:01.073Z,13.00
2022-11-16T09:47:49.319Z,13.20
2022-11-16T09:50:37.552Z,13.00
2022-11-16T09:53:27.485Z,13.20
2022-11-16T09:56:00.108Z,13.10
2022-11-16T09:58:34.584Z,13.00
2022-11-16T10:01:09.483Z,12.90
2022-11-16T10:03:45.277Z,12.80
2022-11-16T10:06:22.587Z,12.80
2022-11-16T10:08:53.676Z,12.80
2022-11-16T10:11:46.786Z,12.80
2022-11-16T10:14:52.182Z,12.80
2022-11-16T10:17:32.068Z,12.90
2022-11-16T10:20:18.498Z,13.10
2022-11-16T10:22:54.982Z,13.20
2022-11-16T10:25:26.638Z,13.20
2022-11-16T10:28:21.738Z,13.20
2022-11-16T10:31:00.047Z,13.20
2022-11-16T10:33:36.427Z,13.40
2022-11-16T10:36:11.280Z,13.50
2022-11-16T10:38:41.719Z,14.10
2022-11-16T10:41:20.723Z,14.60
2022-11-16T10:43:50.577Z,15.10
2022-11-16T10:46:26.177Z,15.20
2022-11-16T10:49:04.897Z,14.80
2022-11-16T10:51:34.068Z,14.20
2022-11-16T10:54:04.817Z,14.00
2022-11-16T10:56:37.821Z,13.90
2022-11-16T10:59:08.441Z,13.50
2022-11-16T11:01:39.721Z,13.50
2022-11-16T11:04:18.807Z,13.50
2022-11-16T11:06:49.905Z,13.40
2022-11-16T11:09:26.676Z,13.50
2022-11-16T11:12:21.964Z,13.90
2022-11-16T11:15:26.341Z,13.60
2022-11-16T11:18:14.909Z,13.40
2022-11-16T11:20:48.524Z,13.40
2022-11-16T11:23:20.012Z,13.40
2022-11-16T11:25:55.073Z,13.20
2022-11-16T11:28:28.025Z,13.20
2022-11-16T11:31:02.024Z,13.20
2022-11-16T11:33:33.597Z,13.50
2022-11-16T11:36:07.588Z,13.40
2022-11-16T11:38:56.141Z,13.50
2022-11-16T11:41:27.868Z,14.20
2022-11-16T11:44:04.760Z,14.80
2022-11-16T11:47:18.254Z,16.20
2022-11-16T11:49:33.823Z,16.20
2022-11-16T11:52:10.530Z,15.40
2022-11-16T11:54:46.976Z,16.20
2022-11-16T11:57:20.956Z,16.40
2022-11-16T11:59:52.505Z,16.40
2022-11-16T12:02:37.867Z,17.80
2022-11-16T12:05:35.093Z,17.30
2022-11-16T12:08:23.328Z,17.20
2022-11-16T12:10:56.601Z,17.70
2022-11-16T12:13:43.266Z,17.20
2022-11-16T12:16:20.659Z,16.90
2022-11-16T12:19:06.168Z,16.40
2022-11-16T12:21:49.738Z,15.80
2022-11-16T12:24:34.768Z,15.10
2022-11-16T12:27:14.015Z,15.90
2022-11-16T12:29:50.345Z,15.90
2022-11-16T12:32:45.895Z,15.60
2022-11-16T12:35:35.266Z,15.30
2022-11-16T12:38:26.113Z,15.40
2022-11-16T12:41:08.984Z,15.80
2022-11-16T12:43:46.428Z,15.80
2022-11-16T12:46:27.604Z,16.50
2022-11-16T12:49:24.555Z,16.70
2022-11-16T12:52:06.535Z,16.90
2022-11-16T12:58:09.075Z,16.90
2022-11-16T13:00:55.073Z,17.30
2022-11-16T13:03:32.899Z,17.60
2022-11-16T13:06:06.370Z,17.80
2022-11-16T13:08:47.420Z,17.60
2022-11-16T13:11:21.933Z,17.30
2022-11-16T13:13:57.496Z,16.10
2022-11-16T13:16:27.269Z,16.90
2022-11-16T13:18:57.296Z,16.80
2022-11-16T13:21:42.143Z,16.10
2022-11-16T13:24:34.094Z,15.20
2022-11-16T13:27:27.373Z,15.10
2022-11-16T13:30:03.381Z,15.10
2022-11-16T13:32:45.929Z,15.20
2022-11-16T13:35:16.966Z,15.00
2022-11-16T13:37:47.620Z,15.10
2022-11-16T13:40:37.435Z,15.10
2022-11-16T13:43:15.920Z,15.00
2022-11-16T13:45:54.581Z,15.30
2022-11-16T13:48:27.143Z,15.80
2022-11-16T13:50:57.617Z,16.40
2022-11-16T13:56:29.715Z,15.40
2022-11-16T13:59:00.103Z,14.90
2022-11-16T14:01:58.008Z,14.60
2022-11-16T14:04:58.666Z,14.70
2022-11-16T14:07:34.336Z,14.70
2022-11-16T14:10:05.853Z,14.70
2022-11-16T14:12:59.066Z,14.30
2022-11-16T14:15:31.103Z,14.20
2022-11-16T14:18:04.974Z,14.10
2022-11-16T14:20:45.612Z,14.30
2022-11-16T14:23:37.257Z,14.10
2022-11-16T14:26:15.139Z,14.00
2022-11-16T14:29:10.510Z,14.30
2022-11-16T14:31:52.502Z,14.50
2022-11-16T14:34:26.632Z,14.00
2022-11-16T14:36:56.366Z,14.10
2022-11-16T14:39:37.503Z,14.00
2022-11-16T14:42:17.983Z,14.30
2022-11-16T14:44:48.204Z,14.10
2022-11-16T14:47:25.446Z,14.10
2022-11-16T14:49:57.101Z,14.00
2022-11-16T14:52:34.741Z,14.10
2022-11-16T14:55:06.861Z,13.90
2022-11-16T14:57:36.721Z,13.60
2022-11-16T15:00:10.868Z,13.70
2022-11-16T15:02:41.611Z,13.70
2022-11-16T15:05:18.980Z,13.70
2022-11-16T15:07:51.561Z,13.70
2022-11-16T15:10:22.400Z,13.80
2022-11-16T15:12:53.209Z,13.70
2022-11-16T15:15:25.543Z,11.50
2022-11-16T15:18:07.760Z,13.80
2022-11-16T15:20:40.101Z,13.80
2022-11-16T15:23:16.887Z,13.90
2022-11-16T15:25:47.660Z,13.80
2022-11-16T15:28:19.413Z,13.90
2022-11-16T15:30:52.163Z,13.80
2022-11-16T15:33:24.191Z,13.70
2022-11-16T15:35:55.724Z,13.70
2022-11-16T15:38:27.453Z,13.60
2022-11-16T15:40:59.149Z,13.60
2022-11-16T15:43:33.350Z,13.70
2022-11-16T15:46:03.618Z,13.70
2022-11-16T15:48:34.294Z,13.70
2022-11-16T15:51:16.100Z,13.60
2022-11-16T15:53:47.039Z,13.50
2022-11-16T15:56:19.739Z,13.20
2022-11-16T15:58:49.698Z,13.50
2022-11-16T16:01:19.726Z,13.70
2022-11-16T16:03:56.242Z,13.60
2022-11-16T16:06:46.379Z,13.50
2022-11-16T16:09:27.923Z,13.40
2022-11-16T16:11:58.347Z,13.30
2022-11-16T16:14:29.981Z,13.50
2022-11-16T16:17:00.175Z,13.60
2022-11-16T16:19:38.710Z,13.50
2022-11-16T16:22:16.371Z,13.60
2022-11-16T16:24:47.182Z,13.40
2022-11-16T16:27:21.687Z,13.40
2022-11-16T16:29:52.538Z,13.50
2022-11-16T16:32:26.723Z,13.60
2022-11-16T16:34:57.339Z,13.60
2022-11-16T16:37:29.071Z,13.50
2022-11-16T16:39:58.189Z,13.60
2022-11-16T16:42:27.500Z,13.60
2022-11-16T16:44:56.623Z,13.50
2022-11-16T16:47:25.633Z,13.40
2022-11-16T16:49:54.875Z,13.30
2022-11-16T16:52:23.892Z,13.30
2022-11-16T16:54:54.458Z,13.20
2022-11-16T16:57:27.433Z,13.30
2022-11-16T16:59:56.700Z,13.40
2022-11-16T17:02:27.080Z,13.10
2022-11-16T17:04:56.238Z,13.10
2022-11-16T17:07:25.400Z,13.20
2022-11-16T17:09:56.098Z,13.10
2022-11-16T17:12:25.182Z,13.10
2022-11-16T17:14:54.337Z,13.10
2022-11-16T17:17:25.265Z,13.10
2022-11-16T17:19:54.628Z,13.20
2022-11-16T17:22:23.729Z,13.20
2022-11-16T17:24:52.879Z,13.10
2022-11-16T17:27:23.487Z,13.10
2022-11-16T17:29:52.622Z,13.20
2022-11-16T17:32:21.729Z,13.40
2022-11-16T17:34:50.961Z,13.40
2022-11-16T17:37:20.212Z,13.30
2022-11-16T17:39:49.388Z,13.30
2022-11-16T17:42:18.453Z,13.20
2022-11-16T17:44:49.979Z,13.20
2022-11-16T17:47:19.099Z,13.30
2022-11-16T17:49:48.130Z,13.30
2022-11-16T17:52:17.539Z,13.30
2022-11-16T17:54:46.730Z,13.20
2022-11-16T17:57:15.873Z,13.30
2022-11-16T17:59:44.938Z,13.20
2022-11-16T18:02:15.699Z,13.20
2022-11-16T18:04:50.773Z,13.30
2022-11-16T18:07:20.405Z,13.40
2022-11-16T18:09:49.533Z,13.50
2022-11-16T18:12:18.712Z,13.50
2022-11-16T18:15:13.482Z,13.40
2022-11-16T18:17:38.371Z,13.30
2022-11-16T18:20:09.428Z,13.20
2022-11-16T18:22:38.614Z,13.20
2022-11-16T18:25:08.134Z,13.20
2022-11-16T18:27:37.302Z,13.30
2022-11-16T18:30:07.288Z,13.20
2022-11-16T18:32:37.878Z,13.30
2022-11-16T18:35:10.177Z,13.20
2022-11-16T18:37:39.341Z,13.20
2022-11-16T18:40:09.597Z,13.10
2022-11-16T18:42:38.695Z,13.00
2022-11-16T18:45:09.046Z,13.00
2022-11-16T18:47:39.710Z,12.90
2022-11-16T18:50:18.963Z,12.90
2022-11-16T18:52:50.508Z,12.90
2022-11-16T18:55:19.641Z,12.80
2022-11-16T18:57:48.800Z,12.80
2022-11-16T19:00:19.691Z,12.90
2022-11-16T19:02:50.271Z,12.70
2022-11-16T19:05:19.891Z,11.40
2022-11-16T19:07:49.176Z,12.80
2022-11-16T19:10:19.776Z,12.70
2022-11-16T19:12:48.852Z,12.80
2022-11-16T19:15:18.128Z,12.60
2022-11-16T19:18:19.507Z,12.70
2022-11-16T19:20:39.204Z,12.70
2022-11-16T19:23:08.441Z,12.80
2022-11-16T19:25:37.529Z,12.80
2022-11-16T19:28:06.937Z,12.70
2022-11-16T19:30:36.000Z,12.70
2022-11-16T19:33:06.631Z,12.80
2022-11-16T19:35:35.883Z,12.90
2022-11-16T19:38:05.054Z,12.90
2022-11-16T19:40:34.161Z,12.80
2022-11-16T19:43:03.323Z,12.80
2022-11-16T19:45:32.432Z,12.70
2022-11-16T19:48:01.529Z,12.70
2022-11-16T19:50:32.160Z,12.60
2022-11-16T19:53:01.287Z,12.80
2022-11-16T19:55:30.349Z,12.80
2022-11-16T19:57:59.577Z,12.80
2022-11-16T20:00:28.697Z,12.70
2022-11-16T20:02:58.656Z,12.70
2022-11-16T20:05:30.257Z,12.80
2022-11-16T20:08:01.883Z,12.80
2022-11-16T20:10:31.078Z,12.70
2022-11-16T20:13:00.142Z,12.70
2022-11-16T20:15:29.350Z,12.60
2022-11-16T20:17:58.436Z,12.40
2022-11-16T20:20:27.560Z,12.50
2022-11-16T20:22:56.727Z,12.50
2022-11-16T20:25:29.347Z,12.50
2022-11-16T20:27:58.467Z,12.50
2022-11-16T20:30:27.557Z,12.40
2022-11-16T20:32:56.996Z,12.40
2022-11-16T20:35:26.280Z,12.40
2022-11-16T20:37:55.380Z,12.40
2022-11-16T20:40:25.076Z,12.30
2022-11-16T20:42:59.507Z,12.30
2022-11-16T20:45:29.007Z,12.30
2022-11-16T20:48:00.288Z,12.30
2022-11-16T20:50:29.603Z,12.30
2022-11-16T20:52:59.008Z,12.30
2022-11-16T20:55:28.077Z,12.20
2022-11-16T20:57:59.851Z,12.20
2022-11-16T21:00:29.343Z,12.10
2022-11-16T21:02:58.469Z,12.10
2022-11-16T21:05:27.593Z,12.10
2022-11-16T21:07:56.793Z,12.10
2022-11-16T21:10:25.935Z,12.00
2022-11-16T21:13:12.509Z,11.90
2022-11-16T21:15:43.119Z,11.80
2022-11-16T21:18:12.210Z,11.80
2022-11-16T21:20:41.330Z,11.80
2022-11-16T21:23:10.398Z,11.80
2022-11-16T21:25:39.449Z,11.70
2022-11-16T21:28:08.535Z,11.80
2022-11-16T21:30:37.711Z,11.80
2022-11-16T21:33:09.609Z,11.80
2022-11-16T21:35:38.751Z,12.20
2022-11-16T21:38:08.006Z,11.70
2022-11-16T21:40:37.034Z,11.60
2022-11-16T21:43:06.207Z,11.70
2022-11-16T21:45:35.490Z,11.60
2022-11-16T21:48:04.671Z,11.70
2022-11-16T21:50:35.223Z,11.60
2022-11-16T21:53:04.301Z,11.60
2022-11-16T21:55:33.786Z,11.70
2022-11-16T21:58:04.184Z,11.50
2022-11-16T22:00:33.364Z,11.60
2022-11-16T22:03:02.424Z,11.50
2022-11-16T22:05:48.563Z,11.50
2022-11-16T22:08:19.285Z,11.50
2022-11-16T22:10:52.404Z,11.50
2022-11-16T22:13:21.895Z,11.30
2022-11-16T22:15:51.063Z,11.50
2022-11-16T22:18:20.044Z,11.30
2022-11-16T22:20:50.103Z,11.60
2022-11-16T22:23:23.704Z,11.70
2022-11-16T22:25:53.773Z,11.50
2022-11-16T22:28:23.433Z,11.60
2022-11-16T22:31:00.030Z,11.50
2022-11-16T22:33:29.313Z,11.50
2022-11-16T22:35:58.433Z,11.50
2022-11-16T22:38:29.095Z,11.70
2022-11-16T22:40:58.903Z,11.60
2022-11-16T22:43:30.062Z,11.60
2022-11-16T22:46:00.314Z,11.60
2022-11-16T22:48:33.324Z,11.60
2022-11-16T22:51:07.167Z,11.60
2022-11-16T22:53:38.181Z,11.50
2022-11-16T22:56:09.347Z,11.40
2022-11-16T22:58:39.272Z,11.50
2022-11-16T23:01:09.971Z,11.50
2022-11-16T23:03:39.867Z,11.30
2022-11-16T23:06:09.565Z,11.30
2022-11-16T23:08:41.382Z,11.30
2022-11-16T23:11:30.457Z,11.30
2022-11-16T23:14:17.208Z,11.40
2022-11-16T23:16:46.682Z,11.40
2022-11-16T23:19:35.032Z,11.30
2022-11-16T23:22:21.688Z,11.40
2022-11-16T23:25:09.559Z,11.10
2022-11-16T23:27:43.150Z,11.20
2022-11-16T23:30:13.597Z,11.00
2022-11-16T23:32:42.740Z,11.00
2022-11-16T23:35:12.251Z,10.80
2022-11-16T23:37:55.045Z,10.90
2022-11-16T23:40:27.554Z,10.80
2022-11-16T23:43:14.511Z,10.70
2022-11-16T23:45:44.523Z,10.70
2022-11-16T23:48:15.148Z,10.90
2022-11-16T23:50:44.787Z,10.90
2022-11-16T23:53:14.334Z,11.10
2022-11-16T23:55:44.890Z,10.80
2022-11-16T23:58:15.994Z,10.90
